Time;durP1;ratioP1;P1;durP2;ratioP2;P2;SDS_P1;SDS_P2;PMS_P1;PMS_P2;Temp;Humidity;BMP_temperature;BMP_pressure;BME280_temperature;BME280_humidity;BME280_pressure;Samples;Min_cycle;Max_cycle;Signal;HPM_P1;HPM_P2
2022/06/19 00:00:11;;;;;;;11.30;4.43;;;;;;;;;;5070503;28;20646;-63
2022/06/19 00:02:37;;;;;;;10.93;4.38;;;;;;;;;;5086626;28;20170;-62
2022/06/19 00:05:02;;;;;;;10.18;3.80;;;;;;;;;;5086244;28;20031;-63
2022/06/19 00:07:29;;;;;;;7.82;3.38;;;;;;;;;;5080775;28;20043;-63
2022/06/19 00:09:55;;;;;;;7.70;4.28;;;;;;;;;;5084531;28;20437;-63
2022/06/19 00:12:20;;;;;;;10.93;3.47;;;;;;;;;;5086068;28;20077;-62
2022/06/19 00:14:46;;;;;;;9.80;3.53;;;;;;;;;;5093718;28;20032;-62
2022/06/19 00:17:13;;;;;;;8.80;3.88;;;;;;;;;;5086950;28;20188;-62
2022/06/19 00:19:39;;;;;;;9.30;3.40;;;;;;;;;;5086123;28;20051;-63
2022/06/19 00:22:05;;;;;;;6.03;3.00;;;;;;;;;;5074604;28;20114;-63
2022/06/19 00:24:31;;;;;;;10.40;3.30;;;;;;;;;;5082359;28;20064;-62
2022/06/19 00:26:56;;;;;;;7.72;3.55;;;;;;;;;;5080738;28;20028;-62
2022/06/19 00:29:22;;;;;;;8.70;3.35;;;;;;;;;;5086007;28;20016;-63
2022/06/19 00:31:47;;;;;;;9.80;3.03;;;;;;;;;;5081229;28;20032;-63
2022/06/19 00:34:12;;;;;;;9.65;3.67;;;;;;;;;;5078817;28;20081;-63
2022/06/19 00:36:38;;;;;;;9.43;3.28;;;;;;;;;;5084845;28;20047;-62
2022/06/19 00:39:03;;;;;;;7.30;2.90;;;;;;;;;;5083731;28;20740;-62
2022/06/19 00:41:36;;;;;;;8.00;3.38;;;;;;;;;;5085420;28;20044;-62
2022/06/19 00:44:04;;;;;;;8.57;3.63;;;;;;;;;;5079605;28;20025;-62
2022/06/19 00:46:47;;;;;;;9.32;3.85;;;;;;;;;;5069478;28;20152;-62
2022/06/19 00:49:23;;;;;;;9.30;3.88;;;;;;;;;;5086654;28;20040;-63
2022/06/19 00:52:03;;;;;;;17.08;4.28;;;;;;;;;;5080653;28;20040;-62
2022/06/19 00:54:34;;;;;;;10.05;3.45;;;;;;;;;;5071000;28;20036;-62
2022/06/19 00:56:59;;;;;;;7.05;3.80;;;;;;;;;;5077413;28;20047;-62
2022/06/19 00:59:25;;;;;;;11.35;5.00;;;;;;;;;;5080751;28;20024;-62
2022/06/19 01:01:50;;;;;;;10.23;4.05;;;;;;;;;;5073900;28;20595;-62
2022/06/19 01:04:25;;;;;;;6.00;3.67;;;;;;;;;;5082876;28;20159;-62
2022/06/19 01:06:51;;;;;;;9.57;3.70;;;;;;;;;;5082323;28;20037;-62
2022/06/19 01:09:17;;;;;;;7.88;3.75;;;;;;;;;;5070554;28;20028;-62
2022/06/19 01:11:43;;;;;;;12.00;3.83;;;;;;;;;;5072721;28;20036;-62
2022/06/19 01:14:10;;;;;;;19.02;4.35;;;;;;;;;;5082909;28;20561;-65
2022/06/19 01:16:37;;;;;;;14.95;4.40;;;;;;;;;;5089402;28;20050;-63
2022/06/19 01:19:04;;;;;;;14.25;4.75;;;;;;;;;;5090014;28;20035;-62
2022/06/19 01:21:51;;;;;;;13.20;5.45;;;;;;;;;;5085267;28;20031;-63
2022/06/19 01:24:27;;;;;;;13.88;5.15;;;;;;;;;;5082165;28;20040;-62
2022/06/19 01:26:59;;;;;;;10.57;5.07;;;;;;;;;;5087712;28;20097;-62
2022/06/19 01:29:27;;;;;;;14.27;5.28;;;;;;;;;;5090232;28;20110;-63
2022/06/19 01:31:55;;;;;;;10.43;3.80;;;;;;;;;;5089466;28;20741;-63
2022/06/19 01:34:27;;;;;;;10.68;3.85;;;;;;;;;;5089746;28;20024;-63
2022/06/19 01:37:01;;;;;;;12.45;2.95;;;;;;;;;;5084003;28;20032;-63
2022/06/19 01:39:30;;;;;;;8.93;2.42;;;;;;;;;;5088751;28;20064;-62
2022/06/19 01:41:56;;;;;;;7.70;2.47;;;;;;;;;;5077254;28;20028;-62
2022/06/19 01:44:22;;;;;;;9.70;2.38;;;;;;;;;;5070266;28;20080;-62
2022/06/19 01:46:47;;;;;;;10.52;2.30;;;;;;;;;;5076223;28;20103;-63
2022/06/19 01:49:13;;;;;;;8.32;2.05;;;;;;;;;;5089569;28;20035;-63
2022/06/19 01:51:39;;;;;;;13.90;2.20;;;;;;;;;;5085171;28;20036;-62
2022/06/19 01:54:12;;;;;;;8.48;2.20;;;;;;;;;;5076279;28;20039;-62
2022/06/19 01:56:38;;;;;;;7.43;2.03;;;;;;;;;;5087598;28;20028;-63
2022/06/19 01:59:10;;;;;;;9.88;2.63;;;;;;;;;;5081899;28;20074;-63
2022/06/19 02:01:36;;;;;;;7.63;1.67;;;;;;;;;;5070542;28;20041;-63
2022/06/19 02:04:02;;;;;;;6.38;1.63;;;;;;;;;;5078863;28;20533;-62
2022/06/19 02:06:44;;;;;;;8.90;1.95;;;;;;;;;;5075219;28;20036;-63
2022/06/19 02:09:09;;;;;;;7.68;1.88;;;;;;;;;;5074628;28;20025;-62
2022/06/19 02:11:35;;;;;;;7.10;1.60;;;;;;;;;;5070923;28;20032;-62
2022/06/19 02:14:04;;;;;;;5.07;1.23;;;;;;;;;;5090399;28;20017;-62
2022/06/19 02:16:29;;;;;;;9.75;1.63;;;;;;;;;;5073058;28;20043;-62
2022/06/19 02:18:55;;;;;;;9.80;1.35;;;;;;;;;;5088505;28;20400;-63
2022/06/19 02:21:40;;;;;;;5.97;1.30;;;;;;;;;;5075786;28;20029;-62
2022/06/19 02:24:09;;;;;;;5.82;1.60;;;;;;;;;;5069995;28;20120;-62
2022/06/19 02:26:37;;;;;;;6.47;1.20;;;;;;;;;;5074849;28;20029;-63
2022/06/19 02:29:04;;;;;;;9.05;1.60;;;;;;;;;;5088578;28;20020;-63
2022/06/19 02:31:32;;;;;;;7.57;1.88;;;;;;;;;;5076996;28;20048;-63
2022/06/19 02:34:03;;;;;;;8.20;1.40;;;;;;;;;;5078597;28;20032;-63
2022/06/19 02:36:38;;;;;;;4.85;1.30;;;;;;;;;;5076742;28;20032;-62
2022/06/19 02:39:32;;;;;;;5.13;1.50;;;;;;;;;;5081324;28;20036;-63
2022/06/19 02:42:05;;;;;;;5.32;1.40;;;;;;;;;;5085236;28;20126;-63
2022/06/19 02:44:37;;;;;;;4.93;1.63;;;;;;;;;;5080466;28;20048;-63
2022/06/19 02:47:03;;;;;;;10.68;1.50;;;;;;;;;;5082843;28;20032;-63
2022/06/19 02:49:29;;;;;;;7.85;1.50;;;;;;;;;;5084632;28;20067;-63
2022/06/19 02:51:55;;;;;;;7.57;1.63;;;;;;;;;;5083599;28;20064;-63
2022/06/19 02:54:20;;;;;;;7.25;1.60;;;;;;;;;;5075656;28;20036;-63
2022/06/19 02:56:45;;;;;;;12.43;1.52;;;;;;;;;;5080431;28;20032;-67
2022/06/19 02:59:11;;;;;;;9.20;1.48;;;;;;;;;;5079484;28;20017;-66
2022/06/19 03:01:36;;;;;;;5.40;1.30;;;;;;;;;;5081861;28;20054;-69
2022/06/19 03:04:02;;;;;;;4.05;1.45;;;;;;;;;;5083222;28;20067;-67
2022/06/19 03:06:27;;;;;;;7.40;1.70;;;;;;;;;;5079952;28;20044;-68
2022/06/19 03:08:52;;;;;;;4.50;1.45;;;;;;;;;;5083853;28;20034;-68
2022/06/19 03:11:18;;;;;;;5.78;1.50;;;;;;;;;;5081487;28;20073;-68
2022/06/19 03:13:43;;;;;;;6.68;1.38;;;;;;;;;;5091647;28;20168;-68
2022/06/19 03:16:10;;;;;;;7.03;1.40;;;;;;;;;;5075284;28;20028;-68
2022/06/19 03:18:36;;;;;;;5.78;1.38;;;;;;;;;;5087914;28;20036;-69
2022/06/19 03:21:02;;;;;;;7.45;1.30;;;;;;;;;;5084290;28;20626;-67
2022/06/19 03:23:27;;;;;;;7.90;1.42;;;;;;;;;;5079565;28;20048;-68
2022/06/19 03:25:53;;;;;;;2.88;1.10;;;;;;;;;;5086919;28;20123;-68
2022/06/19 03:28:18;;;;;;;6.70;1.25;;;;;;;;;;5085502;28;20121;-68
2022/06/19 03:30:44;;;;;;;3.67;1.20;;;;;;;;;;5078850;28;20060;-69
2022/06/19 03:33:09;;;;;;;4.90;1.50;;;;;;;;;;5080197;28;20515;-69
2022/06/19 03:35:34;;;;;;;6.63;1.20;;;;;;;;;;5076910;28;20032;-69
2022/06/19 03:38:00;;;;;;;5.47;1.40;;;;;;;;;;5081786;28;20028;-67
2022/06/19 03:40:25;;;;;;;6.45;1.17;;;;;;;;;;5084592;28;20028;-69
2022/06/19 03:42:51;;;;;;;5.35;1.17;;;;;;;;;;5086919;28;20118;-69
2022/06/19 03:45:16;;;;;;;6.57;1.33;;;;;;;;;;5091186;28;20032;-68
2022/06/19 03:47:43;;;;;;;9.45;1.60;;;;;;;;;;5077312;28;20492;-69
2022/06/19 03:50:14;;;;;;;7.25;1.35;;;;;;;;;;5081587;28;20522;-68
2022/06/19 03:52:40;;;;;;;4.90;1.27;;;;;;;;;;5075673;28;20204;-69
2022/06/19 03:55:05;;;;;;;6.95;1.30;;;;;;;;;;5077543;28;20123;-68
2022/06/19 03:57:31;;;;;;;5.53;1.20;;;;;;;;;;5069973;28;20029;-69
2022/06/19 03:59:56;;;;;;;5.80;1.30;;;;;;;;;;5078673;28;20560;-69
2022/06/19 04:02:21;;;;;;;5.93;1.40;;;;;;;;;;5075936;28;20043;-69
2022/06/19 04:04:47;;;;;;;6.45;1.50;;;;;;;;;;5077185;28;20473;-68
2022/06/19 04:07:13;;;;;;;6.53;1.48;;;;;;;;;;5076739;28;20034;-68
2022/06/19 04:09:39;;;;;;;8.70;1.20;;;;;;;;;;5085174;28;20040;-68
2022/06/19 04:12:05;;;;;;;7.50;1.88;;;;;;;;;;5078204;28;20021;-68
2022/06/19 04:14:31;;;;;;;5.93;1.52;;;;;;;;;;5080839;28;21431;-68
2022/06/19 04:16:56;;;;;;;3.10;1.10;;;;;;;;;;5080067;28;20016;-68
2022/06/19 04:19:21;;;;;;;4.78;1.15;;;;;;;;;;5073623;28;20079;-69
2022/06/19 04:21:47;;;;;;;7.57;1.30;;;;;;;;;;5079689;28;20062;-68
2022/06/19 04:24:15;;;;;;;4.53;1.10;;;;;;;;;;5074242;28;20054;-68
2022/06/19 04:26:41;;;;;;;4.43;1.10;;;;;;;;;;5074497;28;20040;-68
2022/06/19 04:29:08;;;;;;;1.52;0.90;;;;;;;;;;5084082;28;20024;-68
2022/06/19 04:31:34;;;;;;;11.20;1.67;;;;;;;;;;5087067;28;20039;-68
2022/06/19 04:34:00;;;;;;;3.65;1.00;;;;;;;;;;5080460;28;20032;-68
2022/06/19 04:36:28;;;;;;;7.03;1.10;;;;;;;;;;5086955;28;20244;-69
2022/06/19 04:38:56;;;;;;;10.02;1.58;;;;;;;;;;5081488;28;20513;-69
2022/06/19 04:41:25;;;;;;;3.53;1.00;;;;;;;;;;5091848;28;20027;-69
2022/06/19 04:43:51;;;;;;;2.38;1.20;;;;;;;;;;5088005;28;20028;-69
2022/06/19 04:46:18;;;;;;;4.57;1.58;;;;;;;;;;5077337;28;20040;-69
2022/06/19 04:48:44;;;;;;;5.78;1.27;;;;;;;;;;5083850;28;20035;-69
2022/06/19 04:51:10;;;;;;;2.97;1.10;;;;;;;;;;5082413;28;20036;-69
2022/06/19 04:53:37;;;;;;;2.72;1.23;;;;;;;;;;5074141;28;20505;-69
2022/06/19 04:56:04;;;;;;;3.78;1.10;;;;;;;;;;5071826;28;20066;-69
2022/06/19 04:58:29;;;;;;;3.95;1.45;;;;;;;;;;5071331;28;20032;-69
2022/06/19 05:00:55;;;;;;;3.58;1.10;;;;;;;;;;5072001;28;20048;-69
2022/06/19 05:03:22;;;;;;;3.72;1.13;;;;;;;;;;5083778;28;20044;-69
2022/06/19 05:05:47;;;;;;;7.03;1.35;;;;;;;;;;5085913;28;20032;-69
2022/06/19 05:08:14;;;;;;;4.55;1.20;;;;;;;;;;5078223;28;20026;-69
2022/06/19 05:10:41;;;;;;;9.40;1.58;;;;;;;;;;5078569;28;20535;-68
2022/06/19 05:13:13;;;;;;;5.85;1.20;;;;;;;;;;5086315;28;20027;-69
2022/06/19 05:15:39;;;;;;;7.50;1.30;;;;;;;;;;5084194;28;20700;-69
2022/06/19 05:18:04;;;;;;;2.95;1.42;;;;;;;;;;5087837;28;20039;-69
2022/06/19 05:20:30;;;;;;;4.82;1.38;;;;;;;;;;5087491;28;20103;-69
2022/06/19 05:22:55;;;;;;;3.90;1.25;;;;;;;;;;5079227;28;20520;-69
2022/06/19 05:25:20;;;;;;;7.72;1.42;;;;;;;;;;5089095;28;20119;-69
2022/06/19 05:27:46;;;;;;;6.00;1.40;;;;;;;;;;5086447;28;20085;-69
2022/06/19 05:30:13;;;;;;;4.00;1.30;;;;;;;;;;5086280;28;20033;-69
2022/06/19 05:32:39;;;;;;;6.88;1.52;;;;;;;;;;5082549;28;20177;-69
2022/06/19 05:35:05;;;;;;;6.80;1.23;;;;;;;;;;5088557;28;20024;-69
2022/06/19 05:37:30;;;;;;;7.30;2.08;;;;;;;;;;5089078;28;20127;-69
2022/06/19 05:39:57;;;;;;;9.70;2.22;;;;;;;;;;5086160;28;20123;-72
2022/06/19 05:42:22;;;;;;;4.75;1.35;;;;;;;;;;5101414;28;20057;-72
2022/06/19 05:44:47;;;;;;;7.38;1.50;;;;;;;;;;5092130;27;20066;-72
2022/06/19 05:47:13;;;;;;;7.50;2.03;;;;;;;;;;5083710;28;20032;-67
2022/06/19 05:49:39;;;;;;;5.97;1.20;;;;;;;;;;5088206;28;20471;-70
2022/06/19 05:52:17;;;;;;;6.68;1.55;;;;;;;;;;5074248;28;20472;-68
2022/06/19 05:54:44;;;;;;;5.10;1.40;;;;;;;;;;5077703;28;20040;-70
2022/06/19 05:57:09;;;;;;;6.82;1.30;;;;;;;;;;5088365;28;20119;-70
2022/06/19 05:59:34;;;;;;;10.90;2.83;;;;;;;;;;5089613;28;20115;-69
2022/06/19 06:02:00;;;;;;;6.70;1.45;;;;;;;;;;5090053;28;20417;-70
2022/06/19 06:04:26;;;;;;;3.30;1.13;;;;;;;;;;5087891;28;20073;-69
2022/06/19 06:06:52;;;;;;;4.32;1.77;;;;;;;;;;5079915;28;20072;-69
2022/06/19 06:09:17;;;;;;;3.33;1.17;;;;;;;;;;5089623;28;20105;-69
2022/06/19 06:11:43;;;;;;;8.10;1.25;;;;;;;;;;5089162;28;20032;-69
2022/06/19 06:14:08;;;;;;;7.32;1.38;;;;;;;;;;5094132;28;20012;-69
2022/06/19 06:16:33;;;;;;;6.10;1.10;;;;;;;;;;5088364;28;20048;-69
2022/06/19 06:18:59;;;;;;;3.60;1.08;;;;;;;;;;5083243;28;20039;-69
2022/06/19 06:21:25;;;;;;;6.38;1.30;;;;;;;;;;5082887;28;20405;-69
2022/06/19 06:23:52;;;;;;;4.43;1.42;;;;;;;;;;5080498;28;20456;-69
2022/06/19 06:26:21;;;;;;;4.10;1.10;;;;;;;;;;5080715;28;20028;-69
2022/06/19 06:28:48;;;;;;;6.30;1.40;;;;;;;;;;5077486;28;20118;-69
2022/06/19 06:31:14;;;;;;;5.80;1.35;;;;;;;;;;5087129;28;20054;-69
2022/06/19 06:33:40;;;;;;;4.15;1.17;;;;;;;;;;5078528;28;20587;-69
2022/06/19 06:36:06;;;;;;;5.10;1.38;;;;;;;;;;5088897;28;20166;-69
2022/06/19 06:38:32;;;;;;;3.38;1.10;;;;;;;;;;5087554;28;20043;-69
2022/06/19 06:40:58;;;;;;;2.80;1.10;;;;;;;;;;5089716;28;20028;-69
2022/06/19 06:43:24;;;;;;;6.95;1.30;;;;;;;;;;5088908;28;20054;-70
2022/06/19 06:45:49;;;;;;;6.97;1.30;;;;;;;;;;5087861;28;20024;-69
2022/06/19 06:48:16;;;;;;;8.10;1.67;;;;;;;;;;5084797;28;20754;-70
2022/06/19 06:50:41;;;;;;;5.28;1.67;;;;;;;;;;5081042;28;20054;-69
2022/06/19 06:53:08;;;;;;;5.72;1.23;;;;;;;;;;5074707;28;20040;-70
2022/06/19 06:55:38;;;;;;;3.35;1.20;;;;;;;;;;5085874;28;20070;-70
2022/06/19 06:58:04;;;;;;;5.82;1.40;;;;;;;;;;5074010;28;20040;-70
2022/06/19 07:00:30;;;;;;;4.85;1.42;;;;;;;;;;5079645;28;20081;-69
2022/06/19 07:02:55;;;;;;;9.02;1.60;;;;;;;;;;5078662;28;20556;-70
2022/06/19 07:05:20;;;;;;;5.38;1.35;;;;;;;;;;5075497;28;20474;-70
2022/06/19 07:07:46;;;;;;;3.63;1.67;;;;;;;;;;5082371;28;20103;-70
2022/06/19 07:10:11;;;;;;;2.85;1.23;;;;;;;;;;5083904;28;20059;-70
2022/06/19 07:12:37;;;;;;;15.43;1.30;;;;;;;;;;5084687;28;20035;-70
2022/06/19 07:15:03;;;;;;;7.18;1.65;;;;;;;;;;5083674;28;20455;-70
2022/06/19 07:17:28;;;;;;;4.32;1.02;;;;;;;;;;5077481;28;20418;-70
2022/06/19 07:19:53;;;;;;;2.80;1.00;;;;;;;;;;5078685;28;20016;-64
2022/06/19 07:22:19;;;;;;;9.80;1.25;;;;;;;;;;5080406;28;20045;-64
2022/06/19 07:24:46;;;;;;;3.60;1.00;;;;;;;;;;5080548;28;20405;-64
2022/06/19 07:27:12;;;;;;;3.42;1.10;;;;;;;;;;5068665;28;20028;-64
2022/06/19 07:29:42;;;;;;;6.93;1.02;;;;;;;;;;5084753;28;20054;-64
2022/06/19 07:32:08;;;;;;;6.40;1.70;;;;;;;;;;5087795;28;20035;-64
2022/06/19 07:34:34;;;;;;;4.20;1.30;;;;;;;;;;5085495;28;20051;-64
2022/06/19 07:36:59;;;;;;;2.88;1.08;;;;;;;;;;5075945;28;20413;-65
2022/06/19 07:39:25;;;;;;;4.20;1.50;;;;;;;;;;5087165;28;20035;-65
2022/06/19 07:41:51;;;;;;;4.95;1.30;;;;;;;;;;5095859;28;20493;-65
2022/06/19 07:44:16;;;;;;;9.30;1.35;;;;;;;;;;5096568;28;20013;-65
2022/06/19 07:52:10;;;;;;;4.00;1.00;;;;;;;;;;5075898;28;20184;-65
2022/06/19 07:54:35;;;;;;;4.70;1.55;;;;;;;;;;5087016;28;20160;-65
2022/06/19 07:57:00;;;;;;;3.15;1.23;;;;;;;;;;5083017;28;20032;-65
2022/06/19 07:59:26;;;;;;;11.32;1.60;;;;;;;;;;5082089;28;20555;-64
2022/06/19 08:01:51;;;;;;;3.33;1.10;;;;;;;;;;5082276;28;20031;-64
2022/06/19 08:04:16;;;;;;;7.75;1.42;;;;;;;;;;5076012;28;20040;-64
2022/06/19 08:06:42;;;;;;;4.35;1.40;;;;;;;;;;5071752;28;20044;-64
2022/06/19 08:09:07;;;;;;;8.20;2.03;;;;;;;;;;5074345;28;20035;-65
2022/06/19 08:11:34;;;;;;;6.72;1.52;;;;;;;;;;5080728;28;20032;-65
2022/06/19 08:13:59;;;;;;;5.47;1.20;;;;;;;;;;5078933;28;20027;-64
2022/06/19 08:16:24;;;;;;;3.47;1.30;;;;;;;;;;5080567;28;20028;-65
2022/06/19 08:18:50;;;;;;;5.65;1.55;;;;;;;;;;5085154;28;20032;-65
2022/06/19 08:21:15;;;;;;;5.80;1.48;;;;;;;;;;5082786;28;20032;-65
2022/06/19 08:23:41;;;;;;;7.05;2.10;;;;;;;;;;5083178;28;20064;-66
2022/06/19 08:26:07;;;;;;;4.53;1.23;;;;;;;;;;5077488;28;20574;-67
2022/06/19 08:30:58;;;;;;;4.72;1.48;;;;;;;;;;5066533;28;20813;-67
2022/06/19 08:33:23;;;;;;;5.55;1.60;;;;;;;;;;5073838;28;20521;-67
2022/06/19 08:35:53;;;;;;;6.20;2.20;;;;;;;;;;5080010;28;20044;-67
2022/06/19 08:38:23;;;;;;;8.35;1.55;;;;;;;;;;5081429;28;21139;-67
2022/06/19 08:41:06;;;;;;;6.05;1.80;;;;;;;;;;5072700;28;20016;-67
2022/06/19 08:43:53;;;;;;;;;;;;;;;;;;5072323;28;20036;-67
2022/06/19 08:46:28;;;;;;;5.35;2.50;;;;;;;;;;5075871;28;19912;-67
2022/06/19 08:49:09;;;;;;;5.05;1.88;;;;;;;;;;5071722;28;20120;-67
2022/06/19 08:52:13;;;;;;;6.95;2.58;;;;;;;;;;5073421;28;20041;-67
2022/06/19 08:54:59;;;;;;;6.22;2.25;;;;;;;;;;5034347;28;20049;-66
2022/06/19 08:57:35;;;;;;;7.20;3.17;;;;;;;;;;5035551;28;20044;-66
2022/06/19 09:00:22;;;;;;;5.05;3.00;;;;;;;;;;5065958;28;20039;-67
2022/06/19 09:03:02;;;;;;;11.60;4.68;;;;;;;;;;5081810;28;20064;-67
2022/06/19 09:05:37;;;;;;;8.43;3.05;;;;;;;;;;5083059;28;20425;-67
2022/06/19 09:08:17;;;;;;;7.60;3.65;;;;;;;;;;5085050;28;20109;-67
2022/06/19 09:10:45;;;;;;;10.25;4.18;;;;;;;;;;5073941;28;20044;-68
2022/06/19 09:13:19;;;;;;;11.73;4.18;;;;;;;;;;5077545;28;20588;-67
2022/06/19 09:15:53;;;;;;;9.23;4.15;;;;;;;;;;5087143;28;20638;-65
2022/06/19 09:18:44;;;;;;;11.43;4.30;;;;;;;;;;5079717;28;20024;-67
2022/06/19 09:21:26;;;;;;;10.00;4.47;;;;;;;;;;5087708;28;20032;-66
2022/06/19 09:24:00;;;;;;;9.13;3.78;;;;;;;;;;5078480;28;20042;-66
2022/06/19 09:26:34;;;;;;;11.60;4.30;;;;;;;;;;5079362;28;20174;-66
2022/06/19 09:29:35;;;;;;;8.30;4.43;;;;;;;;;;5080299;28;20489;-66
2022/06/19 09:32:17;;;;;;;8.80;4.70;;;;;;;;;;5057474;28;20528;-66
2022/06/19 09:34:59;;;;;;;9.88;4.38;;;;;;;;;;5083640;28;20044;-65
2022/06/19 09:37:29;;;;;;;9.00;4.38;;;;;;;;;;5082425;28;20031;-66
2022/06/19 09:40:07;;;;;;;8.55;4.50;;;;;;;;;;5084959;28;20040;-64
2022/06/19 09:42:37;;;;;;;8.05;4.20;;;;;;;;;;5085411;28;20089;-64
2022/06/19 09:45:23;;;;;;;10.48;4.35;;;;;;;;;;5075646;28;20051;-65
2022/06/19 09:48:04;;;;;;;10.27;4.90;;;;;;;;;;5087708;28;20036;-64
2022/06/19 09:50:35;;;;;;;7.35;5.00;;;;;;;;;;5073186;28;20055;-65
2022/06/19 09:53:09;;;;;;;9.88;5.03;;;;;;;;;;5075542;28;20077;-66
2022/06/19 09:55:39;;;;;;;12.85;5.35;;;;;;;;;;5081536;28;20071;-65
2022/06/19 09:58:17;;;;;;;13.38;6.30;;;;;;;;;;5082160;28;20075;-67
2022/06/19 10:00:46;;;;;;;12.35;5.85;;;;;;;;;;5079228;28;20040;-67
2022/06/19 10:03:18;;;;;;;10.73;5.60;;;;;;;;;;5080457;28;20043;-66
2022/06/19 10:05:51;;;;;;;17.38;7.28;;;;;;;;;;5076203;28;20210;-67
2022/06/19 10:08:36;;;;;;;17.63;7.95;;;;;;;;;;5075731;28;20024;-67
2022/06/19 10:11:08;;;;;;;13.75;7.50;;;;;;;;;;5083161;28;20024;-66
2022/06/19 10:13:48;;;;;;;17.42;8.25;;;;;;;;;;5091142;28;20118;-67
2022/06/19 10:16:26;;;;;;;16.50;8.20;;;;;;;;;;5085190;28;20067;-67
2022/06/19 10:18:53;;;;;;;12.40;8.27;;;;;;;;;;5088163;28;20047;-67
2022/06/19 10:25:00;;;;;;;15.63;8.32;;;;;;;;;;5067381;28;20541;-67
2022/06/19 10:27:44;;;;;;;14.63;9.63;;;;;;;;;;5077741;28;20412;-67
2022/06/19 10:30:19;;;;;;;13.80;8.50;;;;;;;;;;5079700;28;20086;-67
2022/06/19 10:33:16;;;;;;;17.15;9.32;;;;;;;;;;5068858;28;20037;-67
2022/06/19 10:35:56;;;;;;;15.38;9.23;;;;;;;;;;5078018;28;20064;-66
2022/06/19 10:38:57;;;;;;;18.00;10.38;;;;;;;;;;5079586;28;20132;-66
2022/06/19 10:44:28;;;;;;;15.25;7.85;;;;;;;;;;5087078;28;20093;-66
2022/06/19 10:47:06;;;;;;;14.15;8.70;;;;;;;;;;5080218;28;20057;-67
2022/06/19 10:49:45;;;;;;;17.15;9.13;;;;;;;;;;5082229;28;20063;-67
2022/06/19 10:52:25;;;;;;;13.30;8.45;;;;;;;;;;5073158;28;20470;-66
2022/06/19 10:54:56;;;;;;;15.30;9.13;;;;;;;;;;5069782;28;20036;-67
2022/06/19 10:57:44;;;;;;;15.38;8.98;;;;;;;;;;5077410;28;20032;-67
2022/06/19 11:00:10;;;;;;;12.43;8.65;;;;;;;;;;5069501;28;20028;-67
2022/06/19 11:05:50;;;;;;;11.10;7.95;;;;;;;;;;5079527;28;20478;-66
2022/06/19 11:08:18;;;;;;;15.13;8.60;;;;;;;;;;5075300;28;20711;-66
2022/06/19 11:10:52;;;;;;;14.13;7.85;;;;;;;;;;5073820;28;20052;-67
2022/06/19 11:13:18;;;;;;;15.02;7.88;;;;;;;;;;5074635;28;20059;-67
2022/06/19 11:15:48;;;;;;;16.05;8.05;;;;;;;;;;5071747;28;20082;-67
2022/06/19 11:18:25;;;;;;;9.93;7.22;;;;;;;;;;5067153;28;20035;-67
2022/06/19 11:20:53;;;;;;;10.57;6.90;;;;;;;;;;5079196;28;20032;-67
2022/06/19 11:23:22;;;;;;;12.98;6.45;;;;;;;;;;5072132;28;20739;-66
2022/06/19 11:26:21;;;;;;;11.15;6.18;;;;;;;;;;5081003;28;20032;-66
2022/06/19 11:28:53;;;;;;;17.73;7.70;;;;;;;;;;5083407;28;20036;-66
2022/06/19 11:31:21;;;;;;;11.80;7.60;;;;;;;;;;5078138;28;20457;-66
2022/06/19 11:33:53;;;;;;;11.27;7.05;;;;;;;;;;5077597;28;20051;-67
2022/06/19 11:36:30;;;;;;;11.57;7.15;;;;;;;;;;5076206;28;20040;-67
2022/06/19 11:38:56;;;;;;;12.82;7.40;;;;;;;;;;5074056;28;20495;-67
2022/06/19 11:41:21;;;;;;;13.88;7.13;;;;;;;;;;5092209;28;20031;-67
2022/06/19 11:44:04;;;;;;;9.52;7.78;;;;;;;;;;5092339;28;20472;-67
2022/06/19 11:46:31;;;;;;;14.90;8.80;;;;;;;;;;5088613;28;20072;-67
2022/06/19 11:49:25;;;;;;;13.27;8.10;;;;;;;;;;5079230;28;20048;-66
2022/06/19 11:51:52;;;;;;;11.93;7.30;;;;;;;;;;5074625;28;20102;-66
2022/06/19 11:54:26;;;;;;;11.73;6.93;;;;;;;;;;5075952;28;20060;-67
2022/06/19 11:56:52;;;;;;;13.80;7.68;;;;;;;;;;5070016;28;20077;-67
2022/06/19 11:59:31;;;;;;;13.68;7.93;;;;;;;;;;5064960;28;20040;-67
2022/06/19 12:01:56;;;;;;;11.35;7.93;;;;;;;;;;5065382;28;20035;-67
2022/06/19 12:04:43;;;;;;;15.77;9.63;;;;;;;;;;5079289;28;20040;-66
2022/06/19 12:07:23;;;;;;;11.93;8.40;;;;;;;;;;5081558;28;20138;-67
2022/06/19 12:10:01;;;;;;;13.10;7.72;;;;;;;;;;5073203;28;20036;-67
2022/06/19 12:12:28;;;;;;;11.98;8.60;;;;;;;;;;5074830;28;20036;-66
2022/06/19 12:15:12;;;;;;;13.98;8.75;;;;;;;;;;5085845;28;20563;-67
2022/06/19 12:17:44;;;;;;;10.73;7.80;;;;;;;;;;5076849;28;20098;-67
2022/06/19 12:20:09;;;;;;;11.95;8.30;;;;;;;;;;5075926;28;20397;-67
2022/06/19 12:23:03;;;;;;;14.75;8.10;;;;;;;;;;5071081;28;20067;-67
2022/06/19 12:25:41;;;;;;;18.42;10.15;;;;;;;;;;5071681;28;20641;-67
2022/06/19 12:28:31;;;;;;;11.45;8.90;;;;;;;;;;5078719;28;20513;-67
2022/06/19 12:31:18;;;;;;;14.43;9.85;;;;;;;;;;5083732;28;20063;-66
2022/06/19 12:33:52;;;;;;;14.27;10.35;;;;;;;;;;5074340;28;20041;-66
2022/06/19 12:36:22;;;;;;;15.95;10.32;;;;;;;;;;5077136;28;20055;-66
2022/06/19 12:38:51;;;;;;;13.60;9.73;;;;;;;;;;5082310;28;20378;-66
2022/06/19 12:41:40;;;;;;;15.50;9.75;;;;;;;;;;5082348;28;20032;-66
2022/06/19 12:44:35;;;;;;;17.85;11.02;;;;;;;;;;5082184;28;20501;-66
2022/06/19 12:47:12;;;;;;;14.32;10.57;;;;;;;;;;5049205;28;20036;-66
2022/06/19 12:49:43;;;;;;;16.13;10.07;;;;;;;;;;5083614;28;20036;-66
2022/06/19 12:52:20;;;;;;;12.23;9.48;;;;;;;;;;5080689;28;20040;-66
2022/06/19 12:54:57;;;;;;;17.23;9.93;;;;;;;;;;5084340;28;20376;-66
2022/06/19 12:57:56;;;;;;;15.27;9.13;;;;;;;;;;5083415;28;20467;-66
2022/06/19 13:00:36;;;;;;;11.60;7.80;;;;;;;;;;5085068;28;20032;-66
2022/06/19 13:03:39;;;;;;;13.23;6.47;;;;;;;;;;5081514;28;20059;-66
2022/06/19 13:06:26;;;;;;;12.65;7.00;;;;;;;;;;5083862;28;20132;-66
2022/06/19 13:09:05;;;;;;;8.30;5.93;;;;;;;;;;5087319;28;20646;-66
2022/06/19 13:11:45;;;;;;;11.18;6.75;;;;;;;;;;5074952;28;21373;-66
2022/06/19 13:14:41;;;;;;;10.48;6.82;;;;;;;;;;5080541;28;20028;-66
2022/06/19 13:17:12;;;;;;;11.40;7.07;;;;;;;;;;5079371;28;20743;-66
2022/06/19 13:19:56;;;;;;;12.65;7.55;;;;;;;;;;5074824;28;20027;-66
2022/06/19 13:22:27;;;;;;;;;;;;;;;;;;5082491;28;20131;-67
2022/06/19 13:25:14;;;;;;;15.52;8.73;;;;;;;;;;5088487;28;20441;-66
2022/06/19 13:27:39;;;;;;;14.93;9.35;;;;;;;;;;5072610;28;20041;-66
2022/06/19 13:30:17;;;;;;;11.25;8.23;;;;;;;;;;5085854;28;20040;-66
2022/06/19 13:33:24;;;;;;;11.18;7.10;;;;;;;;;;5080944;28;20036;-66
2022/06/19 13:35:56;;;;;;;9.38;7.57;;;;;;;;;;5079760;28;20035;-66
2022/06/19 13:38:48;;;;;;;9.32;6.65;;;;;;;;;;5086542;28;20416;-66
2022/06/19 13:41:28;;;;;;;12.88;6.82;;;;;;;;;;5088431;28;20073;-66
2022/06/19 13:44:15;;;;;;;9.30;7.28;;;;;;;;;;5075403;28;20036;-66
2022/06/19 13:46:57;;;;;;;7.57;6.28;;;;;;;;;;5085611;28;20562;-66
2022/06/19 13:49:22;;;;;;;10.48;7.43;;;;;;;;;;5081435;28;20071;-66
2022/06/19 13:52:09;;;;;;;9.15;6.45;;;;;;;;;;5070216;28;20071;-67
2022/06/19 13:54:41;;;;;;;10.82;7.10;;;;;;;;;;5076693;28;20032;-66
2022/06/19 13:57:18;;;;;;;10.93;7.93;;;;;;;;;;5084476;28;20036;-67
2022/06/19 13:59:46;;;;;;;13.75;8.63;;;;;;;;;;5076137;28;20501;-66
2022/06/19 14:02:24;;;;;;;16.40;9.57;;;;;;;;;;5087377;28;20032;-66
2022/06/19 14:05:17;;;;;;;15.15;8.73;;;;;;;;;;5080597;28;20036;-66
2022/06/19 14:07:54;;;;;;;11.23;8.88;;;;;;;;;;5084185;28;20142;-66
2022/06/19 14:10:26;;;;;;;13.70;9.20;;;;;;;;;;5072400;28;20098;-66
2022/06/19 14:13:00;;;;;;;13.02;9.25;;;;;;;;;;5074779;28;20101;-67
2022/06/19 14:16:03;;;;;;;15.32;10.07;;;;;;;;;;5090451;28;20031;-67
2022/06/19 14:18:43;;;;;;;11.23;8.52;;;;;;;;;;5066107;28;20033;-66
2022/06/19 14:21:15;;;;;;;14.10;8.68;;;;;;;;;;5080519;28;20463;-67
2022/06/19 14:23:50;;;;;;;12.43;8.63;;;;;;;;;;5070451;28;20098;-66
2022/06/19 14:26:36;;;;;;;11.77;8.55;;;;;;;;;;5067900;28;20028;-68
2022/06/19 14:29:29;;;;;;;12.75;8.18;;;;;;;;;;5079945;28;20026;-66
2022/06/19 14:31:56;;;;;;;11.15;8.85;;;;;;;;;;5079984;28;20032;-65
2022/06/19 14:34:43;;;;;;;11.82;8.65;;;;;;;;;;5080202;28;20039;-65
2022/06/19 14:37:21;;;;;;;13.73;9.38;;;;;;;;;;5080238;28;20409;-65
2022/06/19 14:39:48;;;;;;;14.30;10.40;;;;;;;;;;5083851;28;20173;-66
2022/06/19 14:42:14;;;;;;;13.13;9.82;;;;;;;;;;5086118;28;20420;-67
2022/06/19 14:44:56;;;;;;;16.15;9.65;;;;;;;;;;5088801;28;20055;-69
2022/06/19 14:47:39;;;;;;;13.68;9.55;;;;;;;;;;5088521;28;20170;-68
2022/06/19 14:50:22;;;;;;;15.73;10.23;;;;;;;;;;5069226;28;20024;-67
2022/06/19 14:53:13;;;;;;;13.48;9.75;;;;;;;;;;5093132;28;20056;-71
2022/06/19 14:55:59;;;;;;;14.98;9.80;;;;;;;;;;5077115;28;20134;-68
2022/06/19 14:58:36;;;;;;;13.20;9.93;;;;;;;;;;5079512;28;20039;-69
2022/06/19 15:01:03;;;;;;;18.25;10.40;;;;;;;;;;5076046;28;20043;-67
2022/06/19 15:03:45;;;;;;;16.05;10.40;;;;;;;;;;5080496;28;20066;-65
2022/06/19 15:06:47;;;;;;;16.90;10.10;;;;;;;;;;5074650;28;20212;-66
2022/06/19 15:09:23;;;;;;;18.65;10.30;;;;;;;;;;5084770;28;20071;-65
2022/06/19 15:11:49;;;;;;;18.58;9.82;;;;;;;;;;5085455;28;20039;-65
2022/06/19 15:14:25;;;;;;;19.85;10.10;;;;;;;;;;5082639;28;20616;-65
2022/06/19 15:16:59;;;;;;;13.80;9.98;;;;;;;;;;5086604;28;20039;-66
2022/06/19 15:19:42;;;;;;;21.10;10.27;;;;;;;;;;5083738;28;20043;-66
2022/06/19 15:22:27;;;;;;;15.98;10.60;;;;;;;;;;5073353;28;20052;-66